createdAt,value
2016-04-13T00:00:30.269Z,19.83
2016-04-13T00:01:30.256Z,19.8
2016-04-13T00:02:30.243Z,19.86
2016-04-13T00:03:30.215Z,19.83
2016-04-13T00:04:30.499Z,19.85
2016-04-13T00:05:30.188Z,19.92
2016-04-13T00:06:30.176Z,19.83
2016-04-13T00:07:30.146Z,19.87
2016-04-13T00:08:30.139Z,19.86
2016-04-13T00:09:30.110Z,19.87
2016-04-13T00:10:30.097Z,19.87
2016-04-13T00:11:30.084Z,19.82
2016-04-13T00:12:31.290Z,19.86
2016-04-13T00:13:30.042Z,19.83
2016-04-13T00:14:30.030Z,19.83
2016-04-13T00:15:30.017Z,19.87
2016-04-13T00:16:30.003Z,19.86
2016-04-13T00:17:29.991Z,19.85
2016-04-13T00:18:29.947Z,19.86
2016-04-13T00:19:30.090Z,19.85
2016-04-13T00:20:29.922Z,19.83
2016-04-13T00:21:29.909Z,19.82
2016-04-13T00:22:29.879Z,19.85
2016-04-13T00:23:29.867Z,19.86
2016-04-13T00:24:29.854Z,19.83
2016-04-13T00:25:29.841Z,19.85
2016-04-13T00:26:29.844Z,19.82
2016-04-13T00:27:30.205Z,19.86
2016-04-13T00:28:29.786Z,19.85
2016-04-13T00:29:29.758Z,19.85
2016-04-13T00:30:29.760Z,19.86
2016-04-13T00:31:29.732Z,19.85
2016-04-13T00:32:29.735Z,19.8
2016-04-13T00:33:29.706Z,19.86
2016-04-13T00:34:29.677Z,19.83
2016-04-13T00:35:30.165Z,19.85
2016-04-13T00:36:29.651Z,19.83
2016-04-13T00:37:29.639Z,19.83
2016-04-13T00:38:29.625Z,19.76
2016-04-13T00:39:29.628Z,19.8
2016-04-13T00:40:29.601Z,19.86
2016-04-13T00:41:29.556Z,19.83
2016-04-13T00:42:29.543Z,19.8
2016-04-13T00:43:30.186Z,19.82
2016-04-13T00:44:29.361Z,19.8
2016-04-13T00:45:29.504Z,19.79
2016-04-13T00:46:29.476Z,19.82
2016-04-13T00:47:29.462Z,19.83
2016-04-13T00:48:29.434Z,19.78
2016-04-13T00:49:29.437Z,19.79
2016-04-13T00:50:29.424Z,19.8
2016-04-13T00:51:29.394Z,19.76
2016-04-13T00:52:29.382Z,19.76
2016-04-13T00:53:29.369Z,19.79
2016-04-13T00:54:29.341Z,19.78
2016-04-13T00:55:29.327Z,19.79
2016-04-13T00:56:29.330Z,19.86
2016-04-13T00:57:29.302Z,19.79
2016-04-13T00:58:29.273Z,19.83
2016-04-13T00:59:30.166Z,19.79
2016-04-13T01:00:29.294Z,19.79
2016-04-13T01:01:29.218Z,19.82
2016-04-13T01:02:29.206Z,19.76
2016-04-13T01:03:29.193Z,19.72
2016-04-13T01:04:29.179Z,19.83
2016-04-13T01:05:29.151Z,19.78
2016-04-13T01:06:29.138Z,19.76
2016-04-13T01:07:29.423Z,19.76
2016-04-13T01:08:29.098Z,19.83
2016-04-13T01:09:29.101Z,19.79
2016-04-13T01:10:29.071Z,19.82
2016-04-13T01:11:29.058Z,19.76
2016-04-13T01:12:29.034Z,19.76
2016-04-13T01:13:29.036Z,19.82
2016-04-13T01:14:29.007Z,19.78
2016-04-13T01:15:29.448Z,19.78
2016-04-13T01:16:28.966Z,19.78
2016-04-13T01:17:28.984Z,19.76
2016-04-13T01:18:28.956Z,19.75
2016-04-13T01:19:28.927Z,19.71
2016-04-13T01:20:28.899Z,19.71
2016-04-13T01:21:28.886Z,19.75
2016-04-13T01:22:28.861Z,19.72
2016-04-13T01:23:28.848Z,19.71
2016-04-13T01:24:28.836Z,19.75
2016-04-13T01:25:28.822Z,19.8
2016-04-13T01:26:28.841Z,19.72
2016-04-13T01:27:28.781Z,19.7
2016-04-13T01:28:28.768Z,19.71
2016-04-13T01:29:28.739Z,19.68
2016-04-13T01:30:28.586Z,19.83
2016-04-13T01:31:28.729Z,19.67
2016-04-13T01:32:28.685Z,19.76
2016-04-13T01:33:28.688Z,19.7
2016-04-13T01:34:28.659Z,19.7
2016-04-13T01:35:28.646Z,19.67
2016-04-13T01:36:28.617Z,19.72
2016-04-13T01:37:28.604Z,19.71
2016-04-13T01:38:28.607Z,19.68
2016-04-13T01:39:28.579Z,19.68
2016-04-13T01:40:28.551Z,19.82
2016-04-13T01:41:28.553Z,19.71
2016-04-13T01:42:28.524Z,19.61
2016-04-13T01:43:28.512Z,19.71
2016-04-13T01:44:28.499Z,19.7
2016-04-13T01:45:28.470Z,19.72
2016-04-13T01:46:28.457Z,19.68
2016-04-13T01:47:28.460Z,19.68
2016-04-13T01:48:28.478Z,19.64
2016-04-13T01:49:28.418Z,19.7
2016-04-13T01:50:28.420Z,19.7
2016-04-13T01:51:28.361Z,19.6
2016-04-13T01:52:28.348Z,19.62
2016-04-13T01:53:28.335Z,19.65
2016-04-13T01:54:28.333Z,19.67
2016-04-13T01:55:28.362Z,19.67
2016-04-13T01:56:28.596Z,19.68
2016-04-13T01:57:28.409Z,19.61
2016-04-13T01:58:28.437Z,19.62
2016-04-13T01:59:28.446Z,19.67
2016-04-13T02:00:28.463Z,19.68
2016-04-13T02:01:28.450Z,19.62
2016-04-13T02:02:28.453Z,19.72
2016-04-13T02:03:28.439Z,19.65
2016-04-13T02:04:28.783Z,19.68
2016-04-13T02:05:28.417Z,19.65
2016-04-13T02:06:28.424Z,19.62
2016-04-13T02:07:28.401Z,19.62
2016-04-13T02:08:28.394Z,19.61
2016-04-13T02:09:28.447Z,19.67
2016-04-13T02:10:28.374Z,19.62
2016-04-13T02:11:28.347Z,19.64
2016-04-13T02:12:28.851Z,19.61
2016-04-13T02:13:28.326Z,19.55
2016-04-13T02:14:28.298Z,19.67
2016-04-13T02:15:28.286Z,19.62
2016-04-13T02:16:28.275Z,19.62
2016-04-13T02:17:28.246Z,19.61
2016-04-13T02:18:28.249Z,19.62
2016-04-13T02:19:28.237Z,19.62
2016-04-13T02:20:28.850Z,19.67
2016-04-13T02:21:28.541Z,19.62
2016-04-13T02:22:28.231Z,19.7
2016-04-13T02:23:28.250Z,19.65
2016-04-13T02:24:28.143Z,19.62
2016-04-13T02:25:28.131Z,19.58
2016-04-13T02:26:28.101Z,19.61
2016-04-13T02:27:28.089Z,19.61
2016-04-13T02:28:28.123Z,19.57
2016-04-13T02:29:28.064Z,19.53
2016-04-13T02:30:28.035Z,19.57
2016-04-13T02:31:28.022Z,19.58
2016-04-13T02:32:27.993Z,19.55
2016-04-13T02:33:27.981Z,19.53
2016-04-13T02:34:27.983Z,19.61
2016-04-13T02:35:27.955Z,19.55
2016-04-13T02:36:28.114Z,19.57
2016-04-13T02:37:27.913Z,19.55
2016-04-13T02:38:27.900Z,19.6
2016-04-13T02:39:27.903Z,19.61
2016-04-13T02:40:27.858Z,19.6
2016-04-13T02:41:27.846Z,19.55
2016-04-13T02:42:27.833Z,19.57
2016-04-13T02:43:27.819Z,19.52
2016-04-13T02:44:28.103Z,19.57
2016-04-13T02:45:27.777Z,19.57
2016-04-13T02:46:27.750Z,19.52
2016-04-13T02:47:27.752Z,19.6
2016-04-13T02:48:27.724Z,19.53
2016-04-13T02:49:27.710Z,19.53
2016-04-13T02:50:27.698Z,19.46
2016-04-13T02:51:27.748Z,19.47
2016-04-13T02:52:27.656Z,19.45
2016-04-13T02:53:27.643Z,19.43
2016-04-13T02:54:27.614Z,19.43
2016-04-13T02:55:27.601Z,19.53
2016-04-13T02:56:27.589Z,19.52
2016-04-13T02:57:27.559Z,19.43
2016-04-13T02:58:27.547Z,19.42
2016-04-13T02:59:27.737Z,19.49
2016-04-13T03:00:27.506Z,19.42
2016-04-13T03:01:27.493Z,19.5
2016-04-13T03:02:27.480Z,19.4
2016-04-13T03:03:27.451Z,19.46
2016-04-13T03:04:27.439Z,19.58
2016-04-13T03:05:27.442Z,19.42
2016-04-13T03:06:27.694Z,19.45
2016-04-13T03:07:27.744Z,19.47
2016-04-13T03:08:27.371Z,19.4
2016-04-13T03:09:27.374Z,19.43
2016-04-13T03:10:27.345Z,19.49
2016-04-13T03:11:27.332Z,19.45
2016-04-13T03:12:27.304Z,19.47
2016-04-13T03:13:27.290Z,19.43
2016-04-13T03:14:27.263Z,19.45
2016-04-13T03:15:27.813Z,19.45
2016-04-13T03:16:27.236Z,19.4
2016-04-13T03:17:27.224Z,19.43
2016-04-13T03:18:27.210Z,19.45
2016-04-13T03:19:27.182Z,19.42
2016-04-13T03:20:27.169Z,19.5
2016-04-13T03:21:27.235Z,19.45
2016-04-13T03:22:27.127Z,19.4
2016-04-13T03:23:27.754Z,19.42
2016-04-13T03:24:27.098Z,19.46
2016-04-13T03:25:27.070Z,19.49
2016-04-13T03:26:27.073Z,19.42
2016-04-13T03:27:27.075Z,19.43
2016-04-13T03:28:27.031Z,19.39
2016-04-13T03:29:27.018Z,19.38
2016-04-13T03:30:26.990Z,19.42
2016-04-13T03:31:27.776Z,19.32
2016-04-13T03:32:26.948Z,19.46
2016-04-13T03:33:26.936Z,19.49
2016-04-13T03:34:26.923Z,19.4
2016-04-13T03:35:26.909Z,19.43
2016-04-13T03:36:26.834Z,19.43
2016-04-13T03:37:26.869Z,19.46
2016-04-13T03:38:26.839Z,19.39
2016-04-13T03:39:27.783Z,19.46
2016-04-13T03:40:26.819Z,19.34
2016-04-13T03:41:26.805Z,19.35
2016-04-13T03:42:26.793Z,19.42
2016-04-13T03:43:26.763Z,19.3
2016-04-13T03:44:26.736Z,19.31
2016-04-13T03:45:26.738Z,19.28
2016-04-13T03:46:26.710Z,19.35
2016-04-13T03:47:27.040Z,19.45
2016-04-13T03:48:26.684Z,19.3
2016-04-13T03:49:26.655Z,19.39
2016-04-13T03:50:26.642Z,19.39
2016-04-13T03:51:26.504Z,19.27
2016-04-13T03:52:26.601Z,19.46
2016-04-13T03:53:26.587Z,19.27
2016-04-13T03:54:26.668Z,19.35
2016-04-13T03:55:26.562Z,19.31
2016-04-13T03:56:26.534Z,19.25
2016-04-13T03:57:26.520Z,19.45
2016-04-13T03:58:26.492Z,19.35
2016-04-13T03:59:26.479Z,19.35
2016-04-13T04:00:26.482Z,19.34
2016-04-13T04:01:26.453Z,19.35
2016-04-13T04:02:26.675Z,19.38
2016-04-13T04:03:26.411Z,19.28
2016-04-13T04:04:26.399Z,19.35
2016-04-13T04:05:26.370Z,19.24
2016-04-13T04:06:26.435Z,19.27
2016-04-13T04:07:26.344Z,19.38
2016-04-13T04:08:26.331Z,19.27
2016-04-13T04:09:26.319Z,19.3
2016-04-13T04:10:26.711Z,19.27
2016-04-13T04:11:26.277Z,19.35
2016-04-13T04:12:26.249Z,19.25
2016-04-13T04:13:26.252Z,19.3
2016-04-13T04:14:26.255Z,19.27
2016-04-13T04:15:26.210Z,19.32
2016-04-13T04:16:26.197Z,19.31
2016-04-13T04:17:26.184Z,19.3
2016-04-13T04:18:26.702Z,19.24
2016-04-13T04:19:26.158Z,19.32
2016-04-13T04:20:26.113Z,19.28
2016-04-13T04:21:26.148Z,19.27
2016-04-13T04:22:26.087Z,19.32
2016-04-13T04:23:26.075Z,19.32
2016-04-13T04:24:26.062Z,19.3
2016-04-13T04:25:26.034Z,19.32
2016-04-13T04:26:26.708Z,19.27
2016-04-13T04:27:26.007Z,19.23
2016-04-13T04:28:25.979Z,19.27
2016-04-13T04:29:25.982Z,19.25
2016-04-13T04:30:25.953Z,19.24
2016-04-13T04:31:25.925Z,19.23
2016-04-13T04:32:25.912Z,19.2
2016-04-13T04:33:25.899Z,19.27
2016-04-13T04:34:26.730Z,19.25
2016-04-13T04:35:25.858Z,19.25
2016-04-13T04:36:25.844Z,19.28
2016-04-13T04:37:25.831Z,19.3
2016-04-13T04:38:25.819Z,19.2
2016-04-13T04:39:25.789Z,19.24
2016-04-13T04:40:25.777Z,19.27
2016-04-13T04:41:25.592Z,19.3
2016-04-13T04:42:25.986Z,19.28
2016-04-13T04:43:25.723Z,19.28
2016-04-13T04:44:25.710Z,19.2
2016-04-13T04:45:25.681Z,19.17
2016-04-13T04:46:25.746Z,19.21
2016-04-13T04:47:25.640Z,19.2
2016-04-13T04:48:25.642Z,19.17
2016-04-13T04:49:25.613Z,19.16
2016-04-13T04:50:25.991Z,19.24
2016-04-13T04:51:25.588Z,19.15
2016-04-13T04:52:25.559Z,19.27
2016-04-13T04:53:25.577Z,19.23
2016-04-13T04:54:25.548Z,19.31
2016-04-13T04:55:25.504Z,19.17
2016-04-13T04:56:25.507Z,19.23
2016-04-13T04:57:25.479Z,19.24
2016-04-13T04:58:25.466Z,19.24
2016-04-13T04:59:25.438Z,19.25
2016-04-13T05:00:25.425Z,19.24
2016-04-13T05:01:25.412Z,19.24
2016-04-13T05:02:25.383Z,19.2
2016-04-13T05:03:25.386Z,19.24
2016-04-13T05:04:25.357Z,19.15
2016-04-13T05:05:25.344Z,19.25
2016-04-13T05:06:25.316Z,19.28
2016-04-13T05:07:25.303Z,19.16
2016-04-13T05:08:25.274Z,19.16
2016-04-13T05:09:25.261Z,19.24
2016-04-13T05:10:25.248Z,19.21
2016-04-13T05:11:25.236Z,19.24
2016-04-13T05:12:25.222Z,19.27
2016-04-13T05:13:25.210Z,19.2
2016-04-13T05:14:25.180Z,19.15
2016-04-13T05:15:25.168Z,19.27
2016-04-13T05:16:25.138Z,19.27
2016-04-13T05:17:25.126Z,19.28
2016-04-13T05:18:25.098Z,19.21
2016-04-13T05:19:25.101Z,19.23
2016-04-13T05:20:25.072Z,19.21
2016-04-13T05:21:25.059Z,19.32
2016-04-13T05:22:25.063Z,19.12
2016-04-13T05:23:25.017Z,19.17
2016-04-13T05:24:25.020Z,19.15
2016-04-13T05:25:24.976Z,19.16
2016-04-13T05:26:24.979Z,19.17
2016-04-13T05:27:24.951Z,19.25
2016-04-13T05:28:24.953Z,19.17
2016-04-13T05:29:24.924Z,19.1
2016-04-13T05:30:24.896Z,19.21
2016-04-13T05:31:25.039Z,19.16
2016-04-13T05:32:24.886Z,19.17
2016-04-13T05:33:24.841Z,19.12
2016-04-13T05:34:24.860Z,19.07
2016-04-13T05:35:24.815Z,19.09
2016-04-13T05:36:24.818Z,19.17
2016-04-13T05:37:24.774Z,19.09
2016-04-13T05:38:24.777Z,19.1
2016-04-13T05:39:25.044Z,19.12
2016-04-13T05:40:24.736Z,19.13
2016-04-13T05:41:24.722Z,19.07
2016-04-13T05:42:24.694Z,19.15
2016-04-13T05:43:24.680Z,19.15
2016-04-13T05:44:24.668Z,19.13
2016-04-13T05:45:24.639Z,19.1
2016-04-13T05:46:24.626Z,19.13
2016-04-13T05:47:25.066Z,19.1
2016-04-13T05:48:24.600Z,19.13
2016-04-13T05:49:24.587Z,19.09
2016-04-13T05:50:24.559Z,19.09
2016-04-13T05:51:24.546Z,19.1
2016-04-13T05:52:24.532Z,19.07
2016-04-13T05:53:24.504Z,19.13
2016-04-13T05:54:24.492Z,19.01
2016-04-13T05:55:25.073Z,19.09
2016-04-13T05:56:24.543Z,19.02
2016-04-13T05:57:24.437Z,19.1
2016-04-13T05:58:24.409Z,19.13
2016-04-13T05:59:24.396Z,19.1
2016-04-13T06:00:24.382Z,19.07
2016-04-13T06:01:24.370Z,19.12
2016-04-13T06:02:24.342Z,19.13
2016-04-13T06:03:24.328Z,19.07
2016-04-13T06:04:24.315Z,19.15
2016-04-13T06:05:24.302Z,19.05
2016-04-13T06:06:24.274Z,19.05
2016-04-13T06:07:24.261Z,19.1
2016-04-13T06:08:24.248Z,19.07
2016-04-13T06:09:24.236Z,19.06
2016-04-13T06:10:24.206Z,19.06
2016-04-13T06:11:24.366Z,19.09
2016-04-13T06:12:24.025Z,19.15
2016-04-13T06:13:24.168Z,19.13
2016-04-13T06:14:24.139Z,19.07
2016-04-13T06:15:24.126Z,19.09
2016-04-13T06:16:24.113Z,19.09
2016-04-13T06:17:24.100Z,19.07
2016-04-13T06:18:24.071Z,19.16
2016-04-13T06:19:24.402Z,19.1
2016-04-13T06:20:24.030Z,19.07
2016-04-13T06:21:24.018Z,19.07
2016-04-13T06:22:24.004Z,19.02
2016-04-13T06:23:24.008Z,19.1
2016-04-13T06:24:23.963Z,19.02
2016-04-13T06:25:23.949Z,18.99
2016-04-13T06:26:23.984Z,19.1
2016-04-13T06:27:24.362Z,19.12
2016-04-13T06:28:23.880Z,19.1
2016-04-13T06:29:23.882Z,18.99
2016-04-13T06:30:23.870Z,19.07
2016-04-13T06:31:23.826Z,19.1
2016-04-13T06:32:23.828Z,19.12
2016-04-13T06:33:23.815Z,19.16
2016-04-13T06:34:23.973Z,19.15
2016-04-13T06:35:23.773Z,19.25
2016-04-13T06:36:23.745Z,19.1
2016-04-13T06:37:23.731Z,19.13
2016-04-13T06:38:23.735Z,19.21
2016-04-13T06:39:23.706Z,19.3
2016-04-13T06:40:23.677Z,19.21
2016-04-13T06:41:23.681Z,19.2
2016-04-13T06:42:23.995Z,19.17
2016-04-13T06:43:23.623Z,19.21
2016-04-13T06:44:23.610Z,19.27
2016-04-13T06:45:23.597Z,19.16
2016-04-13T06:46:23.585Z,19.27
2016-04-13T06:47:23.572Z,19.27
2016-04-13T06:48:23.543Z,19.24
2016-04-13T06:49:23.530Z,19.27
2016-04-13T06:50:24.016Z,19.31
2016-04-13T06:51:23.489Z,19.31
2016-04-13T06:52:23.319Z,19.27
2016-04-13T06:53:23.463Z,19.28
2016-04-13T06:54:23.449Z,19.27
2016-04-13T06:55:23.421Z,19.42
2016-04-13T06:56:23.408Z,19.31
2016-04-13T06:57:23.411Z,19.34
2016-04-13T06:58:23.992Z,19.34
2016-04-13T06:59:23.354Z,19.45
2016-04-13T07:00:23.341Z,19.39
2016-04-13T07:01:23.343Z,19.38
2016-04-13T07:02:23.299Z,19.28
2016-04-13T07:03:23.302Z,19.46
2016-04-13T07:04:23.273Z,19.43
2016-04-13T07:05:23.261Z,19.42
2016-04-13T07:06:23.295Z,19.4
2016-04-13T07:07:23.234Z,19.4
2016-04-13T07:08:23.206Z,19.39
2016-04-13T07:09:23.192Z,19.46
2016-04-13T07:10:23.180Z,19.52
2016-04-13T07:11:23.167Z,19.43
2016-04-13T07:12:23.154Z,19.53
2016-04-13T07:13:23.125Z,19.5
2016-04-13T07:14:24.019Z,19.55
2016-04-13T07:15:23.100Z,19.5
2016-04-13T07:16:23.072Z,19.5
2016-04-13T07:17:23.058Z,19.52
2016-04-13T07:18:23.046Z,19.5
2016-04-13T07:19:23.033Z,19.61
2016-04-13T07:20:23.019Z,19.55
2016-04-13T07:21:22.992Z,19.55
2016-04-13T07:22:23.275Z,19.58
2016-04-13T07:23:22.981Z,19.55
2016-04-13T07:24:22.953Z,19.58
2016-04-13T07:25:22.940Z,19.52
2016-04-13T07:26:22.911Z,19.57
2016-04-13T07:27:22.898Z,19.57
2016-04-13T07:28:22.885Z,19.58
2016-04-13T07:29:22.919Z,19.58
2016-04-13T07:30:23.296Z,19.55
2016-04-13T07:31:22.815Z,19.55
2016-04-13T07:32:22.817Z,19.62
2016-04-13T07:33:22.804Z,19.57
2016-04-13T07:34:22.776Z,19.58
2016-04-13T07:35:22.762Z,19.58
2016-04-13T07:36:22.751Z,19.62
2016-04-13T07:37:22.878Z,19.64
2016-04-13T07:38:22.709Z,19.62
2016-04-13T07:39:22.696Z,19.6
2016-04-13T07:40:22.683Z,19.55
2016-04-13T07:41:22.654Z,19.61
2016-04-13T07:42:22.642Z,19.58
2016-04-13T07:43:22.628Z,19.64
2016-04-13T07:44:22.631Z,19.6
2016-04-13T07:45:22.914Z,19.62
2016-04-13T07:46:22.574Z,19.61
2016-04-13T07:47:22.561Z,19.64
2016-04-13T07:48:22.547Z,19.61
2016-04-13T07:49:22.535Z,19.6
2016-04-13T07:50:22.522Z,19.64
2016-04-13T07:51:22.494Z,19.65
2016-04-13T07:52:22.481Z,19.62
2016-04-13T07:53:22.921Z,19.65
2016-04-13T07:54:22.439Z,19.62
2016-04-13T07:55:22.426Z,19.65
2016-04-13T07:56:22.413Z,19.67
2016-04-13T07:57:22.401Z,19.65
2016-04-13T07:58:22.371Z,19.62
2016-04-13T07:59:22.360Z,19.68
2016-04-13T08:00:22.346Z,19.68
2016-04-13T08:01:22.927Z,19.62
2016-04-13T08:02:22.305Z,19.71
2016-04-13T08:03:22.292Z,19.67
2016-04-13T08:04:22.279Z,19.8
2016-04-13T08:05:22.265Z,19.78
2016-04-13T08:06:22.253Z,19.8
2016-04-13T08:07:22.224Z,19.76
2016-04-13T08:08:22.216Z,19.78
2016-04-13T08:09:22.937Z,19.83
2016-04-13T08:10:22.174Z,19.8
2016-04-13T08:11:22.161Z,19.76
2016-04-13T08:12:22.149Z,19.79
2016-04-13T08:13:22.119Z,19.8
2016-04-13T08:14:22.108Z,19.8
2016-04-13T08:15:22.094Z,19.76
2016-04-13T08:16:22.081Z,19.82
2016-04-13T08:17:22.209Z,19.8
2016-04-13T08:18:22.040Z,19.85
2016-04-13T08:19:22.027Z,19.89
2016-04-13T08:20:22.014Z,19.83
2016-04-13T08:21:21.985Z,19.86
2016-04-13T08:22:22.191Z,19.83
2016-04-13T08:23:21.944Z,19.92
2016-04-13T08:24:21.947Z,19.94
2016-04-13T08:25:22.231Z,19.94
2016-04-13T08:26:21.905Z,19.97
2016-04-13T08:27:21.893Z,19.98
2016-04-13T08:28:21.879Z,20
2016-04-13T08:29:21.851Z,20.15
2016-04-13T08:30:21.838Z,20.07
2016-04-13T08:31:21.809Z,20.12
2016-04-13T08:32:21.656Z,20.15
2016-04-13T08:33:22.251Z,20.05
2016-04-13T08:34:21.770Z,20.1
2016-04-13T08:35:21.773Z,20.17
2016-04-13T08:36:21.744Z,20.17
2016-04-13T08:37:21.748Z,20.26
2016-04-13T08:38:21.703Z,20.17
2016-04-13T08:39:21.690Z,20.17
2016-04-13T08:40:21.661Z,20.3
2016-04-13T08:41:21.664Z,20.3
2016-04-13T08:42:21.636Z,20.41
2016-04-13T08:43:21.622Z,20.27
2016-04-13T08:44:21.610Z,20.31
2016-04-13T08:45:21.596Z,20.26
2016-04-13T08:46:21.568Z,20.31
2016-04-13T08:47:21.555Z,20.25
2016-04-13T08:48:21.527Z,20.3
2016-04-13T08:49:21.514Z,20.34
2016-04-13T08:50:21.517Z,20.27
2016-04-13T08:51:21.488Z,20.27
2016-04-13T08:52:21.647Z,20.3
2016-04-13T08:53:21.446Z,20.33
2016-04-13T08:54:21.449Z,20.33
2016-04-13T08:55:21.421Z,20.33
2016-04-13T08:56:21.393Z,20.3
2016-04-13T08:57:21.380Z,20.31
2016-04-13T08:58:21.366Z,20.37
2016-04-13T08:59:21.354Z,20.34
2016-04-13T09:00:21.324Z,20.35
2016-04-13T09:01:21.312Z,20.33
2016-04-13T09:02:21.299Z,20.31
2016-04-13T09:03:21.270Z,20.35
2016-04-13T09:04:21.273Z,20.35
2016-04-13T09:05:21.244Z,20.34
2016-04-13T09:06:21.340Z,20.35
2016-04-13T09:07:21.422Z,20.34
2016-04-13T09:08:21.190Z,20.38
2016-04-13T09:09:21.177Z,20.37
2016-04-13T09:10:21.180Z,20.37
2016-04-13T09:11:21.136Z,20.4
2016-04-13T09:12:21.122Z,20.46
2016-04-13T09:13:21.109Z,20.46
2016-04-13T09:14:21.284Z,20.4
2016-04-13T09:15:21.084Z,20.41
2016-04-13T09:16:21.071Z,20.48
2016-04-13T09:17:21.058Z,20.42
2016-04-13T09:18:21.013Z,20.46
2016-04-13T09:19:21.016Z,20.42
2016-04-13T09:20:20.988Z,20.38
2016-04-13T09:21:20.991Z,20.42
2016-04-13T09:22:21.384Z,20.44
2016-04-13T09:23:20.949Z,20.48
2016-04-13T09:24:20.921Z,20.5
2016-04-13T09:25:20.891Z,20.46
2016-04-13T09:26:20.894Z,20.5
2016-04-13T09:27:20.882Z,20.5
2016-04-13T09:28:20.854Z,20.51
2016-04-13T09:29:20.841Z,20.53
2016-04-13T09:30:21.327Z,20.54
2016-04-13T09:31:20.799Z,20.54
2016-04-13T09:32:20.785Z,20.46
2016-04-13T09:33:20.773Z,20.46
2016-04-13T09:34:20.759Z,20.48
2016-04-13T09:35:20.747Z,20.48
2016-04-13T09:36:20.718Z,20.54
2016-04-13T09:37:20.564Z,20.53
2016-04-13T09:38:21.334Z,20.5
2016-04-13T09:39:20.695Z,20.53
2016-04-13T09:40:20.651Z,20.46
2016-04-13T09:41:20.653Z,20.6
2016-04-13T09:42:20.609Z,20.56
2016-04-13T09:43:20.612Z,20.6
2016-04-13T09:44:20.583Z,20.66
2016-04-13T09:45:20.570Z,20.6
2016-04-13T09:46:20.605Z,20.63
2016-04-13T09:47:20.529Z,20.68
2016-04-13T09:48:20.516Z,20.63
2016-04-13T09:49:20.488Z,20.76
2016-04-13T09:50:20.475Z,20.75
2016-04-13T09:51:20.478Z,20.61
2016-04-13T09:52:20.449Z,20.66
2016-04-13T09:53:20.421Z,20.75
2016-04-13T09:54:20.635Z,20.72
2016-04-13T09:55:20.400Z,20.78
2016-04-13T09:56:20.391Z,20.72
2016-04-13T09:57:20.207Z,20.78
2016-04-13T09:58:20.413Z,20.75
2016-04-13T09:59:20.416Z,20.79
2016-04-13T10:00:20.177Z,20.75
2016-04-13T10:01:20.286Z,20.78
2016-04-13T10:02:20.602Z,20.82
2016-04-13T10:03:20.105Z,20.75
2016-04-13T10:04:20.287Z,20.78
2016-04-13T10:05:20.226Z,20.79
2016-04-13T10:06:20.260Z,20.83
2016-04-13T10:07:20.200Z,20.79
2016-04-13T10:08:20.203Z,20.83
2016-04-13T10:09:20.220Z,20.78
2016-04-13T10:10:20.598Z,20.79
2016-04-13T10:11:20.117Z,20.78
2016-04-13T10:12:20.104Z,20.76
2016-04-13T10:13:27.622Z,20.79
2016-04-13T10:14:33.688Z,20.78
2016-04-13T10:15:28.394Z,20.73
2016-04-13T10:16:32.193Z,20.75
2016-04-13T10:17:20.181Z,20.71
2016-04-13T10:18:20.011Z,20.75
2016-04-13T10:19:19.998Z,20.75
2016-04-13T10:20:19.986Z,20.79
2016-04-13T10:21:19.957Z,20.78
2016-04-13T10:22:19.944Z,20.69
2016-04-13T10:23:19.931Z,20.82
2016-04-13T10:24:19.918Z,20.85
2016-04-13T10:25:20.233Z,20.87
2016-04-13T10:26:19.877Z,20.88
2016-04-13T10:27:19.863Z,20.87
2016-04-13T10:28:19.851Z,20.87
2016-04-13T10:29:19.822Z,20.9
2016-04-13T10:30:19.879Z,20.83
2016-04-13T10:31:19.803Z,20.85
2016-04-13T10:32:19.775Z,20.94
2016-04-13T10:33:20.075Z,20.9
2016-04-13T10:34:19.748Z,20.82
2016-04-13T10:35:19.736Z,20.93
2016-04-13T10:36:19.708Z,20.97
2016-04-13T10:37:19.710Z,20.97
2016-04-13T10:38:19.679Z,20.91
2016-04-13T10:39:19.682Z,20.98
2016-04-13T10:40:19.638Z,20.91
2016-04-13T10:41:20.281Z,20.98
2016-04-13T10:42:19.612Z,20.94
2016-04-13T10:43:19.600Z,20.93
2016-04-13T10:44:19.571Z,20.96
2016-04-13T10:45:19.573Z,21.01
2016-04-13T10:46:19.544Z,20.96
2016-04-13T10:47:19.531Z,21.05
2016-04-13T10:48:19.519Z,21.05
2016-04-13T10:49:19.553Z,21.09
2016-04-13T10:50:19.477Z,21.09
2016-04-13T10:51:19.480Z,21.06
2016-04-13T10:52:19.435Z,21.12
2016-04-13T10:53:19.454Z,21.12
2016-04-13T10:54:19.410Z,21.16
2016-04-13T10:55:29.975Z,21.11
2016-04-13T10:56:42.978Z,21.13
2016-04-13T10:57:30.715Z,21.12
2016-04-13T10:58:31.765Z,21.09
2016-04-13T10:59:27.736Z,21.12
2016-04-13T11:00:32.551Z,21.15
2016-04-13T11:01:34.063Z,21.09
2016-04-13T11:02:42.752Z,21.08
2016-04-13T11:03:48.674Z,21.15
2016-04-13T11:04:53.734Z,21.09
2016-04-13T11:05:33.969Z,21.05
2016-04-13T11:06:27.900Z,21.06
2016-04-13T11:07:22.965Z,21.01
2016-04-13T11:08:29.546Z,20.98
2016-04-13T11:09:33.971Z,21.01
2016-04-13T11:10:54.927Z,20.94
2016-04-13T11:11:40.000Z,20.97
2016-04-13T11:12:47.305Z,21
2016-04-13T11:13:37.672Z,20.96
2016-04-13T11:15:16.469Z,20.96
2016-04-13T11:16:20.646Z,20.85
2016-04-13T11:17:35.089Z,20.85
2016-04-13T11:19:04.624Z,20.75
2016-04-13T11:19:43.816Z,20.73
2016-04-13T11:20:46.712Z,20.76
2016-04-13T11:21:44.012Z,20.76
2016-04-13T11:22:37.046Z,20.76
2016-04-13T11:23:36.910Z,20.76
2016-04-13T11:24:36.867Z,20.75
2016-04-13T11:25:36.870Z,20.81
2016-04-13T11:26:37.013Z,20.85
2016-04-13T11:27:36.829Z,20.87
2016-04-13T11:28:36.816Z,20.87
2016-04-13T11:29:36.789Z,20.79
2016-04-13T11:30:36.776Z,20.79
2016-04-13T11:31:36.794Z,20.83
2016-04-13T11:32:36.765Z,20.79
2016-04-13T11:33:36.737Z,20.78
2016-04-13T11:34:37.021Z,20.76
2016-04-13T11:35:36.696Z,20.76
2016-04-13T11:36:36.699Z,20.78
2016-04-13T11:37:36.669Z,20.75
2016-04-13T11:38:36.688Z,20.76
2016-04-13T11:39:36.627Z,20.87
2016-04-13T11:40:36.646Z,20.9
2016-04-13T11:41:36.665Z,20.97
2016-04-13T11:42:37.042Z,20.96
2016-04-13T11:43:36.576Z,20.97
2016-04-13T11:44:36.548Z,21.01
2016-04-13T11:45:36.550Z,20.98
2016-04-13T11:46:36.538Z,20.97
2016-04-13T11:47:36.509Z,21.12
2016-04-13T11:48:36.496Z,21.05
2016-04-13T11:49:36.687Z,21.15
2016-04-13T11:50:36.454Z,21.06
2016-04-13T11:51:36.456Z,21.22
2016-04-13T11:52:36.428Z,21.13
2016-04-13T11:53:36.400Z,21.27
2016-04-13T11:54:36.387Z,21.3
2016-04-13T11:55:36.375Z,21.28
2016-04-13T11:56:36.361Z,21.31
2016-04-13T11:57:36.692Z,21.31
2016-04-13T11:58:36.319Z,21.43
2016-04-13T11:59:36.306Z,21.36
2016-04-13T12:00:36.309Z,21.42
2016-04-13T12:01:36.266Z,21.55
2016-04-13T12:02:36.268Z,21.55
2016-04-13T12:03:36.255Z,21.51
2016-04-13T12:04:36.227Z,21.46
2016-04-13T12:05:36.714Z,21.55
2016-04-13T12:06:36.200Z,21.56
2016-04-13T12:07:36.172Z,21.55
2016-04-13T12:08:36.160Z,21.52
2016-04-13T12:09:36.147Z,21.52
2016-04-13T12:10:36.134Z,21.53
2016-04-13T12:11:36.122Z,21.64
2016-04-13T12:12:36.108Z,21.64
2016-04-13T12:13:36.689Z,21.56
2016-04-13T12:14:36.067Z,21.59
2016-04-13T12:15:36.055Z,21.66
2016-04-13T12:16:36.041Z,21.56
2016-04-13T12:17:36.013Z,21.68
2016-04-13T12:18:35.999Z,21.67
2016-04-13T12:19:36.002Z,21.61
2016-04-13T12:20:35.974Z,21.64
2016-04-13T12:21:35.945Z,21.58
2016-04-13T12:22:35.932Z,21.68
2016-04-13T12:23:35.919Z,21.61
2016-04-13T12:24:35.890Z,21.56
2016-04-13T12:25:35.893Z,21.56
2016-04-13T12:26:35.880Z,21.53
2016-04-13T12:27:35.868Z,21.63
2016-04-13T12:28:35.854Z,21.64
2016-04-13T12:29:35.967Z,21.59
2016-04-13T12:30:35.813Z,21.66
2016-04-13T12:31:35.784Z,21.52
2016-04-13T12:32:35.788Z,21.55
2016-04-13T12:33:35.774Z,21.55
2016-04-13T12:34:35.746Z,21.63
2016-04-13T12:35:35.717Z,21.63
2016-04-13T12:36:35.703Z,21.67
2016-04-13T12:37:35.989Z,21.56
2016-04-13T12:38:35.678Z,21.61
2016-04-13T12:39:35.665Z,21.66
2016-04-13T12:40:35.637Z,21.55
2016-04-13T12:41:35.625Z,21.63
2016-04-13T12:42:35.611Z,21.56
2016-04-13T12:43:35.583Z,21.55
2016-04-13T12:44:35.585Z,21.61
2016-04-13T12:45:36.775Z,21.64
2016-04-13T12:46:35.544Z,21.64
2016-04-13T12:47:35.515Z,21.63
2016-04-13T12:48:35.518Z,21.66
2016-04-13T12:49:35.505Z,21.68
2016-04-13T12:50:35.492Z,21.79
2016-04-13T12:51:35.464Z,21.74
2016-04-13T12:52:35.591Z,21.89
2016-04-13T12:53:35.421Z,21.83
2016-04-13T12:54:35.440Z,21.98
2016-04-13T12:55:35.396Z,22.02
2016-04-13T12:56:35.383Z,22.06